Latest Weather Observations for Scotts Peak

IDT60801

Issued at 8:02 pm EST Friday 29 July 2016 (issued every 30 minutes, with the page automatically refreshed every 10 minutes)

About weather observations | Map of weather stations | Latest weather observations for TAS | Other Formats
Station Details ID: 097083 Name: SCOTTS PEAK DAM Lat: -43.04 Lon: 146.27 Height: 408.0 m
Data from the previous 72 hours. | See also: Recent months at Scotts Peak
Date/Time
EST
Temp
°C
App
Temp
°C
Dew
Point
°C
Rel
Hum
%
Delta-T
°C
Wind Press
QNH
hPa
Press
MSL
hPa
Rain since
9am
mm
Dir  Spd
km/h
Gust
km/h
Spd
kts
Gust
kts
29/08:00pm 3.6 -5.1 2.0 89 0.6 WSW 37 52 20 28 - - 9.0
29/07:30pm 4.4 -4.3 2.1 85 0.9 W 37 52 20 28 - - 8.2
29/07:00pm 4.5 -2.8 2.7 88 0.7 W 30 44 16 24 - - 8.2
29/06:30pm 4.4 -3.2 3.1 91 0.5 WNW 32 48 17 26 - - 8.2
29/06:23pm 4.2 -3.3 3.2 93 0.4 W 32 54 17 29 - - 8.2
29/06:00pm 4.0 -5.0 2.7 91 0.5 WSW 39 59 21 32 - - 8.0
29/05:30pm 4.7 -3.0 3.4 91 0.6 W 33 59 18 32 - - 7.2
29/05:00pm 5.1 -3.4 3.4 89 0.7 W 37 57 20 31 - - 7.0
29/04:52pm 5.2 -2.9 3.4 88 0.8 W 35 57 19 31 - - 7.0
29/04:48pm 5.3 -3.1 3.8 90 0.6 W 37 52 20 28 - - 7.0
29/04:35pm 5.2 -5.7 3.5 89 0.7 W 50 69 27 37 - - 6.8
29/04:30pm 5.6 -5.3 3.3 85 1.0 W 50 69 27 37 - - 6.8
29/04:00pm 5.6 -1.8 5.0 96 0.3 W 33 61 18 33 - - 6.8
29/03:55pm 5.7 -2.4 5.1 96 0.3 W 37 67 20 36 - - 6.8
29/03:38pm 5.7 -4.1 5.3 97 0.2 WSW 46 83 25 45 - - 6.2
29/03:37pm 5.7 -3.7 5.4 98 0.1 W 44 72 24 39 - - 6.2
29/03:30pm 6.3 -2.0 6.2 99 0.0 W 39 61 21 33 - - 5.4
29/03:00pm 6.7 -4.0 6.6 99 0.0 WNW 52 72 28 39 - - 4.0
29/02:30pm 6.2 -4.2 6.1 99 0.0 W 50 78 27 42 - - 3.6
29/02:26pm 6.6 -3.8 6.0 96 0.3 W 50 78 27 42 - - 3.6
29/02:25pm 6.6 -3.8 6.2 97 0.2 W 50 78 27 42 - - 3.4
29/02:04pm 6.8 -5.9 6.7 99 0.0 WNW 63 83 34 45 - - 2.0
29/02:00pm 7.0 -6.1 6.7 98 0.1 WNW 65 80 35 43 - - 1.8
29/01:38pm 7.8 -5.2 7.2 96 0.3 WNW 65 95 35 51 - - 1.4
29/01:30pm 7.5 -3.7 7.4 99 0.0 WNW 56 74 30 40 - - 1.4
29/01:00pm 7.4 -5.2 7.3 99 0.0 WNW 63 85 34 46 - - 1.2
29/12:30pm 7.4 -6.6 6.8 96 0.3 WNW 70 95 38 51 - - 0.8
29/12:00pm 7.5 -5.2 6.9 96 0.3 WNW 63 82 34 44 - - 0.6
29/11:41am 7.3 -6.6 6.4 94 0.4 WNW 69 87 37 47 - - 0.6
29/11:30am 7.4 -6.4 6.8 96 0.3 WNW 69 83 37 45 - - 0.6
29/11:21am 7.3 -6.6 6.4 94 0.4 WNW 69 89 37 48 - - 0.6
29/11:17am 7.3 -5.4 6.7 96 0.3 WNW 63 89 34 48 - - 0.6
29/11:06am 7.2 -4.1 7.1 99 0.0 NW 56 74 30 40 - - 0.2
29/11:00am 7.6 -3.3 7.3 98 0.1 NW 54 65 29 35 - - 0.2
29/10:31am 7.4 -3.7 6.2 92 0.6 WNW 54 76 29 41 - - 0.2
29/10:30am 7.3 -3.7 6.6 95 0.3 WNW 54 78 29 42 - - 0.2
29/10:27am 7.2 -4.9 6.1 93 0.5 WNW 59 80 32 43 - - 0.2
29/10:00am 7.0 -7.5 6.4 96 0.3 NW 72 98 39 53 - - 0.2
29/09:54am 6.8 -6.0 6.4 97 0.2 NW 63 96 34 52 - - 0.2
29/09:52am 6.8 -4.8 6.7 99 0.0 NW 57 87 31 47 - - 0.2
29/09:32am 6.8 -3.5 6.7 99 0.0 NW 50 69 27 37 - - 0.2
29/09:30am 6.7 -4.0 6.6 99 0.0 NW 52 69 28 37 - - 0.2
29/09:00am 6.8 -3.3 5.9 94 0.4 WNW 48 69 26 37 - - 5.0
29/08:30am 7.0 -4.9 6.9 99 0.0 WNW 59 80 32 43 - - 5.0
29/08:00am 6.9 -4.1 6.8 99 0.0 NW 54 74 29 40 - - 4.8
29/07:30am 6.6 -5.0 6.5 99 0.0 NW 57 80 31 43 - - 4.6
29/07:00am 6.5 -5.5 6.4 99 0.0 NW 59 82 32 44 - - 4.4
29/06:31am 6.6 -3.7 6.5 99 0.0 NW 50 69 27 37 - - 4.4
29/06:30am 6.6 -3.3 6.5 99 0.0 NW 48 61 26 33 - - 4.4
29/06:22am 6.6 -1.2 6.6 100 0.0 NW 37 59 20 32 - - 4.0
29/06:00am 6.6 -1.6 6.6 100 0.0 NW 39 48 21 26 - - 4.0
29/05:53am 6.6 -2.5 6.6 100 0.0 NW 44 59 24 32 - - 4.0
29/05:30am 6.5 -5.2 6.4 99 0.0 NW 57 72 31 39 - - 3.8
29/05:00am 6.6 -3.7 6.5 99 0.0 NW 50 69 27 37 - - 3.8
29/04:30am 6.5 -5.2 6.4 99 0.0 WNW 57 89 31 48 - - 3.8
29/04:10am 6.6 -4.5 6.5 99 0.0 WNW 54 72 29 39 - - 3.6
29/04:00am 6.5 -4.6 6.4 99 0.0 NW 54 70 29 38 - - 3.6
29/03:30am 6.7 -3.6 6.4 98 0.1 NW 50 69 27 37 - - 3.6
29/03:02am 6.6 -3.7 6.3 98 0.1 WNW 50 72 27 39 - - 3.6
29/03:00am 6.5 -3.1 6.2 98 0.1 WNW 46 61 25 33 - - 3.6
29/02:30am 6.5 -3.4 6.4 99 0.0 NW 48 80 26 43 - - 3.6
29/02:29am 6.6 -2.9 6.5 99 0.0 NW 46 80 25 43 - - 3.6
29/02:27am 6.6 -2.0 6.5 99 0.0 NW 41 69 22 37 - - 3.6
29/02:01am 6.8 -0.2 6.2 96 0.3 WNW 32 50 17 27 - - 3.6
29/02:00am 6.8 -0.3 6.2 96 0.3 WNW 33 50 18 27 - - 3.6
29/01:30am 6.8 -2.3 5.7 93 0.5 WNW 43 65 23 35 - - 3.6
29/01:00am 6.7 -1.3 5.7 93 0.5 WNW 37 59 20 32 - - 3.6
29/12:30am 6.5 -2.8 6.1 97 0.2 NW 44 74 24 40 - - 3.6
29/12:00am 6.5 0.0 6.4 99 0.0 WNW 30 57 16 31 - - 3.4
 
Date/Time
EST
Temp
°C
App
Temp
°C
Dew
Point
°C
Rel
Hum
%
Delta-T
°C
Wind Press
QNH
hPa
Press
MSL
hPa
Rain since
9am
mm
Dir  Spd
km/h
Gust
km/h
Spd
kts
Gust
kts
28/11:33pm 6.4 -1.5 6.3 99 0.0 WNW 37 56 20 30 - - 3.4
28/11:30pm 6.3 -2.0 6.2 99 0.0 WNW 39 56 21 30 - - 3.4
28/11:00pm 6.3 -1.2 6.2 99 0.0 WNW 35 65 19 35 - - 3.4
28/10:31pm 6.0 -1.2 5.9 99 0.0 NW 33 52 18 28 - - 3.4
28/10:30pm 6.0 -1.2 5.9 99 0.0 NW 33 52 18 28 - - 3.4
28/10:03pm 5.9 -5.3 5.8 99 0.0 NW 54 74 29 40 - - 3.4
28/10:00pm 6.0 -4.1 5.9 99 0.0 NW 48 69 26 37 - - 3.4
28/09:56pm 6.1 -3.0 6.0 99 0.0 NW 43 69 23 37 - - 3.4
28/09:48pm 6.1 -1.1 6.0 99 0.0 WNW 33 52 18 28 - - 3.2
28/09:30pm 6.1 -2.2 6.0 99 0.0 WNW 39 50 21 27 - - 3.0
28/09:00pm 6.1 -3.0 6.0 99 0.0 NW 43 56 23 30 - - 3.0
28/08:30pm 5.8 -5.8 5.7 99 0.0 NW 56 74 30 40 - - 3.0
28/08:04pm 6.0 -3.3 6.0 100 0.0 NW 44 65 24 35 - - 3.0
28/08:00pm 6.0 -3.3 5.9 99 0.0 NW 44 54 24 29 - - 3.0
28/07:30pm 6.2 -3.8 6.2 100 0.0 NW 48 57 26 31 - - 2.8
28/07:00pm 6.2 -1.3 6.1 99 0.0 NW 35 43 19 23 - - 2.2
28/06:30pm 6.1 -2.2 6.0 99 0.0 NW 39 50 21 27 - - 2.0
28/06:14pm 6.2 -3.9 5.6 96 0.3 NW 48 67 26 36 - - 2.0
28/06:00pm 6.3 -3.8 5.9 97 0.2 NW 48 65 26 35 - - 2.0
28/05:53pm 6.3 -2.8 5.9 97 0.2 NW 43 63 23 34 - - 2.0
28/05:46pm 6.2 -2.6 5.6 96 0.3 WNW 41 54 22 29 - - 2.0
28/05:30pm 6.7 -3.5 5.3 91 0.6 W 48 61 26 33 - - 2.0
28/05:22pm 6.8 -0.8 5.6 92 0.5 WNW 35 56 19 30 - - 2.0
28/05:00pm 6.6 -0.6 5.2 91 0.6 NW 32 43 17 23 - - 2.0
28/04:55pm 6.7 -1.1 5.0 89 0.8 WNW 35 48 19 26 - - 2.0
28/04:45pm 7.1 -1.2 4.2 82 1.3 WNW 37 56 20 30 - - 2.0
28/04:30pm 7.1 -2.3 4.2 82 1.3 W 43 57 23 31 - - 2.0
28/04:00pm 7.0 -1.7 5.8 92 0.6 W 41 59 22 32 - - 2.0
28/03:30pm 7.5 -1.5 4.6 82 1.3 WNW 41 63 22 34 - - 2.0
28/03:00pm 7.7 -1.2 5.0 83 1.2 W 41 61 22 33 - - 2.0
28/02:30pm 7.6 -1.1 6.2 91 0.7 WNW 41 61 22 33 - - 2.0
28/02:00pm 7.8 -2.7 7.2 96 0.3 WNW 52 70 28 38 - - 2.0
28/01:30pm 7.6 -2.9 7.3 98 0.1 WNW 52 72 28 39 - - 2.0
28/01:00pm 7.9 -2.9 7.8 99 0.0 WNW 54 76 29 41 - - 2.0
28/12:30pm 7.6 -4.9 7.5 99 0.0 NW 63 82 34 44 - - 2.0
28/12:16pm 7.5 -4.3 7.4 99 0.0 WNW 59 78 32 42 - - 1.8
28/12:00pm 7.4 -4.4 7.4 100 0.0 WNW 59 74 32 40 - - 1.8
28/11:36am 7.3 -4.9 7.2 99 0.0 NW 61 80 33 43 - - 1.4
28/11:30am 8.0 -5.2 8.0 100 0.0 NW 67 80 36 43 - - 1.4
28/11:19am 7.4 -3.5 7.4 100 0.0 WNW 54 76 29 41 - - 1.4
28/11:13am 7.3 -4.5 7.3 100 0.0 WNW 59 82 32 44 - - 1.4
28/11:00am 7.2 -6.6 7.2 100 0.0 NW 69 91 37 49 - - 1.2
28/10:30am 7.3 -5.3 7.3 100 0.0 WNW 63 91 34 49 - - 0.6
28/10:15am 7.4 -4.8 7.3 99 0.0 WNW 61 80 33 43 - - 0.6
28/10:00am 7.1 -5.2 7.1 100 0.0 NW 61 72 33 39 - - 0.4
28/09:34am 7.3 -3.6 7.3 100 0.0 NW 54 76 29 41 - - 0.4
28/09:30am 7.3 -3.6 7.3 100 0.0 NW 54 67 29 36 - - 0.2
28/09:00am 7.3 -4.9 7.2 99 0.0 WNW 61 82 33 44 - - 14.8
28/08:40am 7.2 -4.3 7.2 100 0.0 WNW 57 76 31 41 - - 14.8
28/08:30am 7.2 -4.3 7.2 100 0.0 WNW 57 72 31 39 - - 14.6
28/08:09am 7.3 -4.2 7.3 100 0.0 WNW 57 83 31 45 - - 14.4
28/08:00am 7.0 -4.9 7.0 100 0.0 NW 59 74 32 40 - - 14.4
28/07:42am 7.0 -7.0 7.0 100 0.0 NW 70 89 38 48 - - 14.2
28/07:30am 7.1 -5.5 7.1 100 0.0 NW 63 91 34 49 - - 14.0
28/07:29am 7.1 -5.2 7.1 100 0.0 NW 61 91 33 49 - - 14.0
28/07:27am 7.2 -4.3 7.2 100 0.0 WNW 57 74 31 40 - - 14.0
28/07:20am 7.1 -5.2 7.1 100 0.0 NW 61 76 33 41 - - 14.0
28/07:02am 7.2 -7.1 7.2 100 0.0 NW 72 95 39 51 - - 13.8
28/07:00am 7.2 -6.7 7.2 100 0.0 NW 70 95 38 51 - - 13.8
28/06:58am 7.2 -6.6 7.2 100 0.0 NW 69 95 37 51 - - 13.6
28/06:44am 7.2 -5.0 7.2 100 0.0 NW 61 82 33 44 - - 13.6
28/06:30am 7.0 -5.3 7.0 100 0.0 NW 61 72 33 39 - - 13.4
28/06:20am 6.9 -6.5 6.9 100 0.0 NW 67 89 36 48 - - 13.4
28/06:16am 7.0 -6.0 7.0 100 0.0 NW 65 89 35 48 - - 13.2
28/06:02am 6.9 -4.7 6.8 99 0.0 WNW 57 76 31 41 - - 13.0
28/06:00am 7.0 -4.9 6.9 99 0.0 WNW 59 76 32 41 - - 13.0
28/05:32am 6.6 -3.7 6.6 100 0.0 NW 50 69 27 37 - - 12.4
28/05:30am 6.5 -3.4 6.5 100 0.0 NW 48 61 26 33 - - 12.4
28/05:00am 6.5 -5.2 6.4 99 0.0 WNW 57 82 31 44 - - 11.6
28/04:30am 6.3 -4.5 6.2 99 0.0 NW 52 72 28 39 - - 10.4
28/04:00am 6.0 -6.1 5.9 99 0.0 NW 59 80 32 43 - - 10.4
28/03:30am 6.2 -4.6 6.1 99 0.0 WNW 52 76 28 41 - - 10.2
28/03:29am 6.2 -4.2 6.1 99 0.0 WNW 50 76 27 41 - - 10.2
28/03:00am 6.1 -5.6 6.0 99 0.0 NW 57 69 31 37 - - 9.8
28/02:30am 5.8 -4.7 5.7 99 0.0 WNW 50 67 27 36 - - 9.8
28/02:00am 6.1 -4.8 5.4 95 0.3 WNW 52 70 28 38 - - 9.4
28/01:37am 6.3 -4.6 5.7 96 0.3 WNW 52 70 28 38 - - 9.2
28/01:30am 6.3 -5.3 5.9 97 0.2 WNW 56 69 30 37 - - 9.0
28/01:22am 6.3 -4.5 5.9 97 0.2 NW 52 74 28 40 - - 8.8
28/01:17am 6.1 -3.0 5.8 98 0.1 WNW 43 72 23 39 - - 8.8
28/01:15am 6.1 -2.3 5.7 97 0.2 WNW 39 63 21 34 - - 8.8
28/01:00am 6.4 -2.9 4.9 90 0.7 WNW 43 57 23 31 - - 8.8
28/12:30am 6.4 -3.5 4.6 88 0.8 WNW 46 65 25 35 - - 8.8
28/12:00am 6.5 -4.3 4.0 84 1.1 WNW 50 69 27 37 - - 8.8
 
Date/Time
EST
Temp
°C
App
Temp
°C
Dew
Point
°C
Rel
Hum
%
Delta-T
°C
Wind Press
QNH
hPa
Press
MSL
hPa
Rain since
9am
mm
Dir  Spd
km/h
Gust
km/h
Spd
kts
Gust
kts
27/11:40pm 6.5 -4.7 4.0 84 1.1 WNW 52 70 28 38 - - 8.8
27/11:30pm 6.4 -4.0 4.2 86 1.0 WNW 48 61 26 33 - - 8.8
27/11:00pm 6.0 -3.4 4.6 91 0.6 WNW 43 63 23 34 - - 8.6
27/10:30pm 6.7 -4.1 4.2 84 1.1 WNW 50 72 27 39 - - 8.6
27/10:00pm 7.2 -3.8 2.9 74 1.8 WNW 50 70 27 38 - - 8.6
27/09:47pm 7.3 -3.0 2.8 73 1.9 WNW 46 67 25 36 - - 8.6
27/09:40pm 7.0 -3.6 2.9 75 1.8 W 48 69 26 37 - - 8.6
27/09:31pm 7.1 -5.6 2.8 74 1.8 WNW 59 78 32 42 - - 8.6
27/09:30pm 7.2 -5.8 3.3 76 1.7 WNW 61 78 33 42 - - 8.6
27/09:02pm 7.2 -3.8 3.1 75 1.8 WNW 50 69 27 37 - - 8.4
27/09:00pm 7.0 -4.3 3.6 79 1.5 WNW 52 65 28 35 - - 8.4
27/08:30pm 7.0 -3.8 4.3 83 1.2 W 50 76 27 41 - - 8.4
27/08:00pm 7.1 -4.1 4.2 82 1.3 WNW 52 78 28 42 - - 8.4
27/07:30pm 7.1 -4.3 5.1 87 0.9 W 54 80 29 43 - - 8.2
27/07:00pm 6.8 -4.4 6.1 95 0.3 W 54 83 29 45 - - 8.0
27/06:54pm 7.0 -6.0 5.5 90 0.7 W 63 91 34 49 - - 7.6
27/06:53pm 7.1 -6.7 5.1 87 0.9 W 67 96 36 52 - - 7.6
27/06:45pm 7.1 -7.1 5.1 87 0.9 WNW 69 100 37 54 - - 7.4
27/06:44pm 7.3 -7.0 4.6 83 1.2 WNW 69 100 37 54 - - 7.4
27/06:30pm 7.3 -5.9 6.4 94 0.4 WNW 65 87 35 47 - - 7.2
27/06:00pm 7.1 -8.5 6.7 97 0.2 WNW 78 106 42 57 - - 7.0
27/05:30pm 6.5 -8.8 6.4 99 0.0 WNW 76 100 41 54 - - 6.2
27/05:00pm 5.0 -9.4 5.0 100 0.0 NW 70 100 38 54 - - 5.2
27/04:35pm 4.4 -10.0 4.3 99 0.0 NW 69 87 37 47 - - 4.2
27/04:30pm 4.3 -10.3 4.2 99 0.0 NW 70 87 38 47 - - 4.0
27/04:00pm 3.4 -9.6 3.3 99 0.0 NW 61 82 33 44 - - 3.2
27/03:41pm 3.6 -8.1 3.5 99 0.0 NW 54 78 29 42 - - 2.4
27/03:30pm 3.5 -8.2 3.4 99 0.0 NW 54 67 29 36 - - 2.0
27/03:17pm 3.6 -9.0 3.5 99 0.0 NW 59 82 32 44 - - 1.8
27/03:13pm 3.7 -8.3 3.6 99 0.0 NW 56 82 30 44 - - 1.8
27/03:10pm 3.5 -7.4 3.4 99 0.0 NW 50 72 27 39 - - 1.6
27/03:00pm 3.6 -7.7 3.5 99 0.0 NW 52 69 28 37 - - 1.6
27/02:31pm 3.1 -8.3 3.0 99 0.0 NW 52 70 28 38 - - 1.6
27/02:30pm 3.1 -8.3 3.0 99 0.0 NW 52 69 28 37 - - 1.4
27/02:00pm 3.1 -8.3 2.8 98 0.1 NW 52 72 28 39 - - 1.2
27/01:30pm 3.4 -7.3 2.5 94 0.4 NW 48 67 26 36 - - 1.0
27/01:04pm 3.3 -5.6 3.2 99 0.0 NW 39 63 21 34 - - 0.8
27/01:00pm 3.3 -5.2 3.2 99 0.0 NW 37 48 20 26 - - 0.8
27/12:30pm 3.3 -5.6 2.9 97 0.2 NW 39 59 21 32 - - 0.8
27/12:28pm 3.4 -5.1 3.3 99 0.0 NW 37 59 20 32 - - 0.8
27/12:00pm 3.3 -4.6 2.3 93 0.4 WNW 33 43 18 23 - - 0.4
27/11:30am 3.8 -5.2 2.5 91 0.5 WNW 39 48 21 26 - - 0.4
27/11:00am 2.2 -6.6 1.3 94 0.4 WNW 37 46 20 25 - - 0.2
27/10:30am 4.6 -3.4 3.9 95 0.3 NW 35 44 19 24 - - 0.0
27/10:00am 2.7 -7.1 2.3 97 0.2 WNW 43 56 23 30 - - 0.0
27/09:41am 2.2 -6.6 1.5 95 0.3 WNW 37 50 20 27 - - 0.0
27/09:30am 1.9 -8.2 1.8 99 0.0 NW 44 54 24 29 - - 0.0
27/09:00am 1.4 -7.1 0.8 96 0.2 WNW 35 44 19 24 - - 21.8
27/08:39am 1.6 -5.6 0.6 93 0.4 WNW 28 46 15 25 - - 21.6
27/08:30am 1.6 -4.9 0.4 92 0.5 W 24 37 13 20 - - 21.6
27/08:00am 2.0 -6.1 -0.1 86 0.8 WNW 32 41 17 22 - - 21.6
27/07:30am 1.7 -5.5 0.4 91 0.5 WNW 28 37 15 20 - - 21.6
27/07:00am 1.8 -3.8 -0.1 87 0.7 WSW 19 30 10 16 - - 21.6
27/06:30am 1.8 -4.7 0.2 89 0.6 WNW 24 32 13 17 - - 21.6
27/06:00am 1.9 -5.3 0.4 90 0.6 WNW 28 41 15 22 - - 21.6
27/05:30am 1.9 -4.2 0.4 90 0.6 WNW 22 32 12 17 - - 21.6
27/05:00am 1.8 -5.8 0.3 90 0.6 W 30 43 16 23 - - 21.6
27/04:46am 2.2 -4.3 0.3 87 0.7 W 24 39 13 21 - - 21.6
27/04:30am 2.0 -6.0 0.4 89 0.6 W 32 54 17 29 - - 21.6
27/04:28am 1.9 -5.3 0.6 91 0.5 W 28 54 15 29 - - 21.6
27/04:00am 2.5 -2.5 1.5 93 0.4 WSW 17 32 9 17 - - 21.2
27/03:30am 2.1 -5.7 1.8 98 0.1 WSW 32 59 17 32 - - 21.2
27/03:22am 2.2 -4.0 2.1 99 0.0 WSW 24 59 13 32 - - 21.2
27/03:00am 2.4 -2.5 2.3 99 0.0 W 17 32 9 17 - - 20.6
27/02:30am 2.4 -3.4 2.3 99 0.0 SW 22 33 12 18 - - 20.0
27/02:00am 2.4 -5.9 2.3 99 0.0 WSW 35 59 19 32 - - 19.4
27/01:53am 2.6 -6.4 2.5 99 0.0 WSW 39 61 21 33 - - 18.8
27/01:30am 3.3 -5.2 3.2 99 0.0 W 37 56 20 30 - - 16.2
27/01:28am 3.3 -4.4 3.2 99 0.0 WNW 33 52 18 28 - - 15.6
27/01:00am 3.5 -6.3 3.5 100 0.0 NW 44 61 24 33 - - 14.0
27/12:55am 3.2 -5.7 3.2 100 0.0 NNW 39 57 21 31 - - 13.8
27/12:30am 2.7 -7.0 2.7 100 0.0 NNW 43 52 23 28 - - 12.6
27/12:00am 2.5 -8.6 2.4 99 0.0 NNW 50 61 27 33 - - 12.0
 
Date/Time
EST
Temp
°C
App
Temp
°C
Dew
Point
°C
Rel
Hum
%
Delta-T
°C
Wind Press
QNH
hPa
Press
MSL
hPa
Rain since
9am
mm
Dir  Spd
km/h
Gust
km/h
Spd
kts
Gust
kts
26/11:30pm 2.8 -8.6 2.7 99 0.0 NNW 52 61 28 33 - - 11.2
26/11:00pm 2.9 -7.4 2.9 100 0.0 NNW 46 57 25 31 - - 10.6
26/10:30pm 3.0 -6.9 3.0 100 0.0 NNW 44 54 24 29 - - 9.8
26/10:00pm 2.4 -5.5 2.4 100 0.0 NNW 33 41 18 22 - - 9.2
26/09:30pm 2.1 -6.2 2.1 100 0.0 NNW 35 48 19 26 - - 9.2
26/09:00pm 1.7 -5.7 1.6 99 0.0 NNW 30 37 16 20 - - 9.0
26/08:30pm 1.3 -5.8 1.2 99 0.0 NNW 28 37 15 20 - - 8.8

Other Formats:

Comma delimited format used in spreadsheet applications
http://www.bom.gov.au/fwo/IDT60801/IDT60801.95958.axf

JavaScript Object Notation format (JSON) in row-major order
http://www.bom.gov.au/fwo/IDT60801/IDT60801.95958.json